sensor_id;sensor_type;location;lat;lon;timestamp;P1;durP1;ratioP1;P2;durP2;ratioP2
9597;SDS011;4837;50.890;4.724;2023-03-14T00:01:26;4.05;;;1.38;;
9597;SDS011;4837;50.890;4.724;2023-03-14T00:03:52;4.47;;;1.60;;
9597;SDS011;4837;50.890;4.724;2023-03-14T00:06:18;6.82;;;1.52;;
9597;SDS011;4837;50.890;4.724;2023-03-14T00:08:45;5.30;;;1.48;;
9597;SDS011;4837;50.890;4.724;2023-03-14T00:11:12;5.63;;;1.70;;
9597;SDS011;4837;50.890;4.724;2023-03-14T00:13:38;4.03;;;1.38;;
9597;SDS011;4837;50.890;4.724;2023-03-14T00:16:09;3.80;;;1.30;;
9597;SDS011;4837;50.890;4.724;2023-03-14T00:18:35;5.07;;;1.25;;
9597;SDS011;4837;50.890;4.724;2023-03-14T00:21:02;2.67;;;1.23;;
9597;SDS011;4837;50.890;4.724;2023-03-14T00:23:29;10.70;;;1.75;;
9597;SDS011;4837;50.890;4.724;2023-03-14T00:25:59;8.50;;;1.75;;
9597;SDS011;4837;50.890;4.724;2023-03-14T00:28:25;5.35;;;1.40;;
9597;SDS011;4837;50.890;4.724;2023-03-14T00:30:52;4.82;;;1.70;;
9597;SDS011;4837;50.890;4.724;2023-03-14T00:33:18;7.43;;;1.50;;
9597;SDS011;4837;50.890;4.724;2023-03-14T00:35:51;5.55;;;1.45;;
9597;SDS011;4837;50.890;4.724;2023-03-14T00:38:17;4.72;;;1.75;;
9597;SDS011;4837;50.890;4.724;2023-03-14T00:40:43;7.15;;;2.00;;
9597;SDS011;4837;50.890;4.724;2023-03-14T00:43:09;9.38;;;1.90;;
9597;SDS011;4837;50.890;4.724;2023-03-14T00:45:35;8.18;;;2.05;;
9597;SDS011;4837;50.890;4.724;2023-03-14T00:48:02;5.35;;;2.13;;
9597;SDS011;4837;50.890;4.724;2023-03-14T00:50:28;10.57;;;1.80;;
9597;SDS011;4837;50.890;4.724;2023-03-14T00:52:54;8.25;;;2.20;;
9597;SDS011;4837;50.890;4.724;2023-03-14T00:55:20;6.75;;;1.70;;
9597;SDS011;4837;50.890;4.724;2023-03-14T00:57:46;8.38;;;2.20;;
9597;SDS011;4837;50.890;4.724;2023-03-14T01:00:12;5.57;;;1.52;;
9597;SDS011;4837;50.890;4.724;2023-03-14T01:02:38;7.82;;;1.95;;
9597;SDS011;4837;50.890;4.724;2023-03-14T01:05:05;4.57;;;1.65;;
9597;SDS011;4837;50.890;4.724;2023-03-14T01:07:32;7.05;;;1.42;;
9597;SDS011;4837;50.890;4.724;2023-03-14T01:09:59;5.15;;;1.83;;
9597;SDS011;4837;50.890;4.724;2023-03-14T01:12:25;6.55;;;1.92;;
9597;SDS011;4837;50.890;4.724;2023-03-14T01:14:51;6.47;;;1.90;;
9597;SDS011;4837;50.890;4.724;2023-03-14T01:17:17;4.68;;;1.65;;
9597;SDS011;4837;50.890;4.724;2023-03-14T01:19:43;6.70;;;1.90;;
9597;SDS011;4837;50.890;4.724;2023-03-14T01:22:09;6.88;;;2.08;;
9597;SDS011;4837;50.890;4.724;2023-03-14T01:24:36;9.38;;;2.10;;
9597;SDS011;4837;50.890;4.724;2023-03-14T01:27:02;12.30;;;2.10;;
9597;SDS011;4837;50.890;4.724;2023-03-14T01:29:28;6.30;;;2.10;;
9597;SDS011;4837;50.890;4.724;2023-03-14T01:31:54;5.50;;;1.92;;
9597;SDS011;4837;50.890;4.724;2023-03-14T01:34:21;6.95;;;2.20;;
9597;SDS011;4837;50.890;4.724;2023-03-14T01:36:47;5.95;;;1.98;;
9597;SDS011;4837;50.890;4.724;2023-03-14T01:39:13;7.20;;;2.10;;
9597;SDS011;4837;50.890;4.724;2023-03-14T01:41:39;6.90;;;2.13;;
9597;SDS011;4837;50.890;4.724;2023-03-14T01:44:08;8.25;;;2.47;;
9597;SDS011;4837;50.890;4.724;2023-03-14T01:46:36;8.63;;;2.45;;
9597;SDS011;4837;50.890;4.724;2023-03-14T01:54:44;9.88;;;2.53;;
9597;SDS011;4837;50.890;4.724;2023-03-14T01:57:13;8.27;;;1.92;;
9597;SDS011;4837;50.890;4.724;2023-03-14T01:59:42;9.45;;;1.77;;
9597;SDS011;4837;50.890;4.724;2023-03-14T02:02:09;4.32;;;2.03;;
9597;SDS011;4837;50.890;4.724;2023-03-14T02:04:35;8.88;;;2.17;;
9597;SDS011;4837;50.890;4.724;2023-03-14T02:07:05;10.30;;;2.03;;
9597;SDS011;4837;50.890;4.724;2023-03-14T02:09:31;3.88;;;1.50;;
9597;SDS011;4837;50.890;4.724;2023-03-14T02:11:58;5.95;;;2.13;;
9597;SDS011;4837;50.890;4.724;2023-03-14T02:14:27;6.82;;;1.83;;
9597;SDS011;4837;50.890;4.724;2023-03-14T02:16:54;5.33;;;1.53;;
9597;SDS011;4837;50.890;4.724;2023-03-14T02:19:23;4.40;;;1.40;;
9597;SDS011;4837;50.890;4.724;2023-03-14T02:22:10;7.18;;;1.60;;
9597;SDS011;4837;50.890;4.724;2023-03-14T02:25:20;5.43;;;1.63;;
9597;SDS011;4837;50.890;4.724;2023-03-14T02:27:27;6.90;;;1.55;;
9597;SDS011;4837;50.890;4.724;2023-03-14T02:30:00;6.35;;;1.50;;
9597;SDS011;4837;50.890;4.724;2023-03-14T02:32:27;5.70;;;1.27;;
9597;SDS011;4837;50.890;4.724;2023-03-14T02:34:55;4.97;;;1.42;;
9597;SDS011;4837;50.890;4.724;2023-03-14T02:37:23;4.13;;;1.00;;
9597;SDS011;4837;50.890;4.724;2023-03-14T02:39:50;3.58;;;1.10;;
9597;SDS011;4837;50.890;4.724;2023-03-14T02:42:16;5.80;;;1.75;;
9597;SDS011;4837;50.890;4.724;2023-03-14T02:44:47;6.57;;;1.10;;
9597;SDS011;4837;50.890;4.724;2023-03-14T02:47:13;5.68;;;1.60;;
9597;SDS011;4837;50.890;4.724;2023-03-14T02:49:39;3.50;;;1.10;;
9597;SDS011;4837;50.890;4.724;2023-03-14T02:52:05;4.47;;;1.05;;
9597;SDS011;4837;50.890;4.724;2023-03-14T02:54:31;3.53;;;1.00;;
9597;SDS011;4837;50.890;4.724;2023-03-14T02:56:58;4.07;;;1.17;;
9597;SDS011;4837;50.890;4.724;2023-03-14T02:59:24;7.38;;;1.58;;
9597;SDS011;4837;50.890;4.724;2023-03-14T03:01:50;4.53;;;1.08;;
9597;SDS011;4837;50.890;4.724;2023-03-14T03:04:16;5.53;;;1.55;;
9597;SDS011;4837;50.890;4.724;2023-03-14T03:06:42;7.35;;;1.30;;
9597;SDS011;4837;50.890;4.724;2023-03-14T03:09:08;4.00;;;1.40;;
9597;SDS011;4837;50.890;4.724;2023-03-14T03:11:34;3.45;;;1.30;;
9597;SDS011;4837;50.890;4.724;2023-03-14T03:14:00;3.17;;;1.25;;
9597;SDS011;4837;50.890;4.724;2023-03-14T03:16:26;5.75;;;1.38;;
9597;SDS011;4837;50.890;4.724;2023-03-14T03:18:52;4.45;;;1.35;;
9597;SDS011;4837;50.890;4.724;2023-03-14T03:21:19;4.10;;;1.60;;
9597;SDS011;4837;50.890;4.724;2023-03-14T03:23:48;5.70;;;1.60;;
9597;SDS011;4837;50.890;4.724;2023-03-14T03:26:14;5.38;;;1.77;;
9597;SDS011;4837;50.890;4.724;2023-03-14T03:28:40;7.63;;;2.25;;
9597;SDS011;4837;50.890;4.724;2023-03-14T03:31:10;8.90;;;1.90;;
9597;SDS011;4837;50.890;4.724;2023-03-14T03:33:36;6.40;;;2.05;;
9597;SDS011;4837;50.890;4.724;2023-03-14T03:36:03;5.90;;;2.33;;
9597;SDS011;4837;50.890;4.724;2023-03-14T03:38:29;6.43;;;2.40;;
9597;SDS011;4837;50.890;4.724;2023-03-14T03:40:55;7.85;;;2.67;;
9597;SDS011;4837;50.890;4.724;2023-03-14T03:43:21;6.05;;;2.70;;
9597;SDS011;4837;50.890;4.724;2023-03-14T03:45:47;8.25;;;2.40;;
9597;SDS011;4837;50.890;4.724;2023-03-14T03:48:13;9.80;;;2.50;;
9597;SDS011;4837;50.890;4.724;2023-03-14T03:50:46;8.00;;;2.88;;
9597;SDS011;4837;50.890;4.724;2023-03-14T03:53:12;9.77;;;2.42;;
9597;SDS011;4837;50.890;4.724;2023-03-14T03:55:40;9.27;;;3.05;;
9597;SDS011;4837;50.890;4.724;2023-03-14T03:58:07;10.55;;;2.40;;
9597;SDS011;4837;50.890;4.724;2023-03-14T04:00:33;7.37;;;2.80;;
9597;SDS011;4837;50.890;4.724;2023-03-14T04:03:00;6.72;;;2.30;;
9597;SDS011;4837;50.890;4.724;2023-03-14T04:05:26;9.07;;;2.60;;
9597;SDS011;4837;50.890;4.724;2023-03-14T04:07:52;7.75;;;2.50;;
9597;SDS011;4837;50.890;4.724;2023-03-14T04:10:18;3.97;;;2.13;;
9597;SDS011;4837;50.890;4.724;2023-03-14T04:12:44;5.68;;;2.25;;
9597;SDS011;4837;50.890;4.724;2023-03-14T04:15:10;5.15;;;2.00;;
9597;SDS011;4837;50.890;4.724;2023-03-14T04:17:36;6.15;;;2.33;;
9597;SDS011;4837;50.890;4.724;2023-03-14T04:20:02;10.45;;;2.33;;
9597;SDS011;4837;50.890;4.724;2023-03-14T04:22:29;7.90;;;2.40;;
9597;SDS011;4837;50.890;4.724;2023-03-14T04:24:55;9.35;;;2.35;;
9597;SDS011;4837;50.890;4.724;2023-03-14T04:27:21;5.70;;;2.45;;
9597;SDS011;4837;50.890;4.724;2023-03-14T04:29:47;7.22;;;2.47;;
9597;SDS011;4837;50.890;4.724;2023-03-14T04:32:14;6.72;;;2.20;;
9597;SDS011;4837;50.890;4.724;2023-03-14T04:34:40;5.67;;;2.00;;
9597;SDS011;4837;50.890;4.724;2023-03-14T04:37:06;11.27;;;3.53;;
9597;SDS011;4837;50.890;4.724;2023-03-14T04:39:33;8.15;;;2.47;;
9597;SDS011;4837;50.890;4.724;2023-03-14T04:41:59;6.70;;;2.13;;
9597;SDS011;4837;50.890;4.724;2023-03-14T04:44:25;5.07;;;1.60;;
9597;SDS011;4837;50.890;4.724;2023-03-14T04:46:51;4.03;;;2.17;;
9597;SDS011;4837;50.890;4.724;2023-03-14T04:49:17;5.95;;;2.20;;
9597;SDS011;4837;50.890;4.724;2023-03-14T04:51:43;7.03;;;1.95;;
9597;SDS011;4837;50.890;4.724;2023-03-14T04:54:09;5.68;;;2.00;;
9597;SDS011;4837;50.890;4.724;2023-03-14T04:56:35;5.00;;;1.75;;
9597;SDS011;4837;50.890;4.724;2023-03-14T04:59:02;5.43;;;1.63;;
9597;SDS011;4837;50.890;4.724;2023-03-14T05:01:28;4.55;;;1.90;;
9597;SDS011;4837;50.890;4.724;2023-03-14T05:03:54;6.03;;;2.10;;
9597;SDS011;4837;50.890;4.724;2023-03-14T05:06:20;6.47;;;2.35;;
9597;SDS011;4837;50.890;4.724;2023-03-14T05:08:46;5.97;;;2.17;;
9597;SDS011;4837;50.890;4.724;2023-03-14T05:11:12;3.22;;;1.40;;
9597;SDS011;4837;50.890;4.724;2023-03-14T05:13:39;3.10;;;1.60;;
9597;SDS011;4837;50.890;4.724;2023-03-14T05:16:05;4.37;;;1.63;;
9597;SDS011;4837;50.890;4.724;2023-03-14T05:18:32;3.85;;;2.28;;
9597;SDS011;4837;50.890;4.724;2023-03-14T05:20:58;4.05;;;2.05;;
9597;SDS011;4837;50.890;4.724;2023-03-14T05:23:24;4.03;;;1.83;;
9597;SDS011;4837;50.890;4.724;2023-03-14T05:25:50;4.07;;;2.03;;
9597;SDS011;4837;50.890;4.724;2023-03-14T05:28:16;4.15;;;1.80;;
9597;SDS011;4837;50.890;4.724;2023-03-14T05:30:42;4.45;;;2.00;;
9597;SDS011;4837;50.890;4.724;2023-03-14T05:33:08;4.82;;;2.00;;
9597;SDS011;4837;50.890;4.724;2023-03-14T05:35:34;3.15;;;1.92;;
9597;SDS011;4837;50.890;4.724;2023-03-14T05:38:01;5.50;;;2.10;;
9597;SDS011;4837;50.890;4.724;2023-03-14T05:40:27;5.07;;;2.13;;
9597;SDS011;4837;50.890;4.724;2023-03-14T05:42:53;4.13;;;2.00;;
9597;SDS011;4837;50.890;4.724;2023-03-14T05:45:19;3.00;;;1.90;;
9597;SDS011;4837;50.890;4.724;2023-03-14T05:47:45;5.53;;;3.08;;
9597;SDS011;4837;50.890;4.724;2023-03-14T05:50:11;4.53;;;3.42;;
9597;SDS011;4837;50.890;4.724;2023-03-14T05:52:37;5.90;;;2.17;;
9597;SDS011;4837;50.890;4.724;2023-03-14T05:55:03;3.22;;;2.13;;
9597;SDS011;4837;50.890;4.724;2023-03-14T05:57:30;5.07;;;2.17;;
9597;SDS011;4837;50.890;4.724;2023-03-14T05:59:56;2.90;;;1.83;;
9597;SDS011;4837;50.890;4.724;2023-03-14T06:02:22;3.05;;;2.28;;
9597;SDS011;4837;50.890;4.724;2023-03-14T06:04:48;3.95;;;2.40;;
9597;SDS011;4837;50.890;4.724;2023-03-14T06:07:14;3.97;;;2.70;;
9597;SDS011;4837;50.890;4.724;2023-03-14T06:09:40;3.17;;;2.53;;
9597;SDS011;4837;50.890;4.724;2023-03-14T06:12:06;4.72;;;2.95;;
9597;SDS011;4837;50.890;4.724;2023-03-14T06:14:33;4.15;;;2.97;;
9597;SDS011;4837;50.890;4.724;2023-03-14T06:16:59;6.67;;;3.10;;
9597;SDS011;4837;50.890;4.724;2023-03-14T06:19:25;4.40;;;2.90;;
9597;SDS011;4837;50.890;4.724;2023-03-14T06:21:51;6.78;;;3.38;;
9597;SDS011;4837;50.890;4.724;2023-03-14T06:24:17;6.72;;;3.53;;
9597;SDS011;4837;50.890;4.724;2023-03-14T06:26:43;5.82;;;3.83;;
9597;SDS011;4837;50.890;4.724;2023-03-14T06:29:10;5.95;;;3.97;;
9597;SDS011;4837;50.890;4.724;2023-03-14T06:31:36;5.82;;;3.55;;
9597;SDS011;4837;50.890;4.724;2023-03-14T06:34:02;5.15;;;3.92;;
9597;SDS011;4837;50.890;4.724;2023-03-14T06:36:29;4.80;;;4.00;;
9597;SDS011;4837;50.890;4.724;2023-03-14T06:38:55;6.45;;;3.88;;
9597;SDS011;4837;50.890;4.724;2023-03-14T06:41:21;5.13;;;4.25;;
9597;SDS011;4837;50.890;4.724;2023-03-14T06:43:49;4.70;;;3.53;;
9597;SDS011;4837;50.890;4.724;2023-03-14T06:46:15;4.82;;;3.58;;
9597;SDS011;4837;50.890;4.724;2023-03-14T06:48:41;6.45;;;3.60;;
9597;SDS011;4837;50.890;4.724;2023-03-14T06:51:07;5.40;;;3.50;;
9597;SDS011;4837;50.890;4.724;2023-03-14T06:53:33;4.15;;;3.60;;
9597;SDS011;4837;50.890;4.724;2023-03-14T06:55:59;5.30;;;3.05;;
9597;SDS011;4837;50.890;4.724;2023-03-14T06:58:25;4.95;;;3.00;;
9597;SDS011;4837;50.890;4.724;2023-03-14T07:00:52;3.13;;;2.33;;
9597;SDS011;4837;50.890;4.724;2023-03-14T07:03:19;4.40;;;2.45;;
9597;SDS011;4837;50.890;4.724;2023-03-14T07:05:45;3.75;;;2.40;;
9597;SDS011;4837;50.890;4.724;2023-03-14T07:08:11;3.40;;;2.42;;
9597;SDS011;4837;50.890;4.724;2023-03-14T07:10:38;2.95;;;2.15;;
9597;SDS011;4837;50.890;4.724;2023-03-14T07:13:04;2.92;;;1.73;;
9597;SDS011;4837;50.890;4.724;2023-03-14T07:15:30;1.85;;;1.42;;
9597;SDS011;4837;50.890;4.724;2023-03-14T07:17:56;2.33;;;1.60;;
9597;SDS011;4837;50.890;4.724;2023-03-14T07:20:22;1.52;;;1.20;;
9597;SDS011;4837;50.890;4.724;2023-03-14T07:22:48;3.78;;;1.08;;
9597;SDS011;4837;50.890;4.724;2023-03-14T07:25:15;1.50;;;1.27;;
9597;SDS011;4837;50.890;4.724;2023-03-14T07:27:42;2.72;;;1.60;;
9597;SDS011;4837;50.890;4.724;2023-03-14T07:30:09;3.35;;;1.10;;
9597;SDS011;4837;50.890;4.724;2023-03-14T07:32:35;1.55;;;1.20;;
9597;SDS011;4837;50.890;4.724;2023-03-14T07:35:01;3.13;;;1.63;;
9597;SDS011;4837;50.890;4.724;2023-03-14T07:37:27;1.80;;;1.45;;
9597;SDS011;4837;50.890;4.724;2023-03-14T07:39:54;2.63;;;1.27;;
9597;SDS011;4837;50.890;4.724;2023-03-14T07:42:20;3.90;;;1.53;;
9597;SDS011;4837;50.890;4.724;2023-03-14T07:44:46;2.40;;;1.35;;
9597;SDS011;4837;50.890;4.724;2023-03-14T07:47:12;2.53;;;1.45;;
9597;SDS011;4837;50.890;4.724;2023-03-14T07:49:38;2.47;;;1.48;;
9597;SDS011;4837;50.890;4.724;2023-03-14T07:52:04;3.10;;;1.70;;
9597;SDS011;4837;50.890;4.724;2023-03-14T07:54:30;3.80;;;1.85;;
9597;SDS011;4837;50.890;4.724;2023-03-14T07:56:56;3.87;;;1.70;;
9597;SDS011;4837;50.890;4.724;2023-03-14T07:59:25;3.95;;;1.52;;
9597;SDS011;4837;50.890;4.724;2023-03-14T08:01:51;4.07;;;1.60;;
9597;SDS011;4837;50.890;4.724;2023-03-14T08:04:17;2.35;;;1.45;;
9597;SDS011;4837;50.890;4.724;2023-03-14T08:06:44;2.67;;;1.80;;
9597;SDS011;4837;50.890;4.724;2023-03-14T08:09:10;3.17;;;1.73;;
9597;SDS011;4837;50.890;4.724;2023-03-14T08:11:36;3.20;;;1.70;;
9597;SDS011;4837;50.890;4.724;2023-03-14T08:14:02;2.77;;;1.80;;
9597;SDS011;4837;50.890;4.724;2023-03-14T08:16:28;4.30;;;1.80;;
9597;SDS011;4837;50.890;4.724;2023-03-14T08:18:54;3.90;;;1.90;;
9597;SDS011;4837;50.890;4.724;2023-03-14T08:21:21;2.53;;;2.00;;
9597;SDS011;4837;50.890;4.724;2023-03-14T08:23:47;3.50;;;2.30;;
9597;SDS011;4837;50.890;4.724;2023-03-14T08:26:13;4.37;;;2.13;;
9597;SDS011;4837;50.890;4.724;2023-03-14T08:28:39;5.83;;;2.53;;
9597;SDS011;4837;50.890;4.724;2023-03-14T08:31:05;5.95;;;3.05;;
9597;SDS011;4837;50.890;4.724;2023-03-14T08:33:31;6.13;;;3.65;;
9597;SDS011;4837;50.890;4.724;2023-03-14T08:35:58;7.00;;;3.88;;
9597;SDS011;4837;50.890;4.724;2023-03-14T08:38:25;6.88;;;3.72;;
9597;SDS011;4837;50.890;4.724;2023-03-14T08:40:58;5.00;;;4.10;;
9597;SDS011;4837;50.890;4.724;2023-03-14T08:43:25;5.77;;;3.80;;
9597;SDS011;4837;50.890;4.724;2023-03-14T08:45:51;5.07;;;3.67;;
9597;SDS011;4837;50.890;4.724;2023-03-14T08:48:18;5.35;;;3.30;;
9597;SDS011;4837;50.890;4.724;2023-03-14T08:50:44;5.30;;;2.87;;
9597;SDS011;4837;50.890;4.724;2023-03-14T08:53:11;4.47;;;2.80;;
9597;SDS011;4837;50.890;4.724;2023-03-14T08:55:37;6.10;;;2.67;;
9597;SDS011;4837;50.890;4.724;2023-03-14T08:58:03;5.25;;;2.05;;
9597;SDS011;4837;50.890;4.724;2023-03-14T09:00:29;2.55;;;2.28;;
9597;SDS011;4837;50.890;4.724;2023-03-14T09:02:55;4.57;;;2.67;;
9597;SDS011;4837;50.890;4.724;2023-03-14T09:05:21;3.73;;;1.90;;
9597;SDS011;4837;50.890;4.724;2023-03-14T09:07:47;3.70;;;1.88;;
9597;SDS011;4837;50.890;4.724;2023-03-14T09:10:13;3.23;;;1.93;;
9597;SDS011;4837;50.890;4.724;2023-03-14T09:12:40;6.25;;;2.10;;
9597;SDS011;4837;50.890;4.724;2023-03-14T09:15:06;3.55;;;1.70;;
9597;SDS011;4837;50.890;4.724;2023-03-14T09:17:32;3.50;;;2.00;;
9597;SDS011;4837;50.890;4.724;2023-03-14T09:19:59;5.33;;;2.30;;
9597;SDS011;4837;50.890;4.724;2023-03-14T09:22:25;4.10;;;2.45;;
9597;SDS011;4837;50.890;4.724;2023-03-14T09:24:51;6.63;;;3.03;;
9597;SDS011;4837;50.890;4.724;2023-03-14T09:27:17;5.07;;;2.67;;
9597;SDS011;4837;50.890;4.724;2023-03-14T09:29:43;5.80;;;3.22;;
9597;SDS011;4837;50.890;4.724;2023-03-14T09:32:09;3.17;;;2.73;;
9597;SDS011;4837;50.890;4.724;2023-03-14T09:34:35;3.63;;;2.67;;
9597;SDS011;4837;50.890;4.724;2023-03-14T09:37:01;6.80;;;2.37;;
9597;SDS011;4837;50.890;4.724;2023-03-14T09:39:29;3.15;;;2.40;;
9597;SDS011;4837;50.890;4.724;2023-03-14T09:41:55;4.03;;;2.25;;
9597;SDS011;4837;50.890;4.724;2023-03-14T09:46:50;4.27;;;2.73;;
9597;SDS011;4837;50.890;4.724;2023-03-14T09:49:20;3.97;;;2.87;;
9597;SDS011;4837;50.890;4.724;2023-03-14T09:51:47;4.43;;;3.20;;
9597;SDS011;4837;50.890;4.724;2023-03-14T09:57:00;4.13;;;2.80;;
9597;SDS011;4837;50.890;4.724;2023-03-14T09:59:26;4.40;;;2.93;;
9597;SDS011;4837;50.890;4.724;2023-03-14T10:01:55;4.13;;;3.25;;
9597;SDS011;4837;50.890;4.724;2023-03-14T10:04:22;4.88;;;3.58;;
9597;SDS011;4837;50.890;4.724;2023-03-14T10:06:48;5.70;;;3.30;;
9597;SDS011;4837;50.890;4.724;2023-03-14T10:09:21;7.10;;;2.90;;
9597;SDS011;4837;50.890;4.724;2023-03-14T10:11:54;6.83;;;2.90;;
9597;SDS011;4837;50.890;4.724;2023-03-14T10:14:33;6.77;;;2.90;;
9597;SDS011;4837;50.890;4.724;2023-03-14T10:17:10;7.10;;;3.40;;
9597;SDS011;4837;50.890;4.724;2023-03-14T10:19:37;7.20;;;3.00;;
9597;SDS011;4837;50.890;4.724;2023-03-14T10:22:04;6.40;;;3.00;;
9597;SDS011;4837;50.890;4.724;2023-03-14T10:24:34;7.18;;;3.05;;
9597;SDS011;4837;50.890;4.724;2023-03-14T10:27:02;6.28;;;3.20;;
9597;SDS011;4837;50.890;4.724;2023-03-14T10:29:29;6.93;;;3.15;;
9597;SDS011;4837;50.890;4.724;2023-03-14T10:32:05;6.77;;;3.20;;
9597;SDS011;4837;50.890;4.724;2023-03-14T10:34:36;8.90;;;3.37;;
9597;SDS011;4837;50.890;4.724;2023-03-14T10:37:06;6.40;;;2.80;;
9597;SDS011;4837;50.890;4.724;2023-03-14T10:42:05;7.30;;;3.27;;
9597;SDS011;4837;50.890;4.724;2023-03-14T10:44:33;5.23;;;2.33;;
9597;SDS011;4837;50.890;4.724;2023-03-14T10:47:00;4.47;;;2.20;;
9597;SDS011;4837;50.890;4.724;2023-03-14T10:49:31;5.10;;;2.40;;
9597;SDS011;4837;50.890;4.724;2023-03-14T10:54:46;2.83;;;1.43;;
9597;SDS011;4837;50.890;4.724;2023-03-14T10:57:12;5.33;;;1.40;;
9597;SDS011;4837;50.890;4.724;2023-03-14T10:59:39;3.43;;;1.40;;
9597;SDS011;4837;50.890;4.724;2023-03-14T11:02:15;3.93;;;1.20;;
9597;SDS011;4837;50.890;4.724;2023-03-14T11:04:55;2.03;;;1.13;;
9597;SDS011;4837;50.890;4.724;2023-03-14T11:10:20;2.13;;;1.20;;
9597;SDS011;4837;50.890;4.724;2023-03-14T11:21:11;2.07;;;0.90;;
9597;SDS011;4837;50.890;4.724;2023-03-14T11:26:17;1.10;;;0.70;;
9597;SDS011;4837;50.890;4.724;2023-03-14T11:28:50;1.57;;;1.03;;
9597;SDS011;4837;50.890;4.724;2023-03-14T11:31:20;2.23;;;0.90;;
9597;SDS011;4837;50.890;4.724;2023-03-14T11:33:53;1.87;;;0.97;;
9597;SDS011;4837;50.890;4.724;2023-03-14T11:36:24;3.07;;;1.10;;
9597;SDS011;4837;50.890;4.724;2023-03-14T11:38:55;3.13;;;1.10;;
9597;SDS011;4837;50.890;4.724;2023-03-14T11:41:27;1.50;;;1.10;;
9597;SDS011;4837;50.890;4.724;2023-03-14T11:43:56;3.17;;;1.27;;
9597;SDS011;4837;50.890;4.724;2023-03-14T11:46:23;1.63;;;0.93;;
9597;SDS011;4837;50.890;4.724;2023-03-14T11:49:04;1.73;;;1.00;;
9597;SDS011;4837;50.890;4.724;2023-03-14T11:51:33;1.20;;;0.93;;
9597;SDS011;4837;50.890;4.724;2023-03-14T11:54:18;1.42;;;0.80;;
9597;SDS011;4837;50.890;4.724;2023-03-14T11:56:55;1.00;;;0.90;;
9597;SDS011;4837;50.890;4.724;2023-03-14T11:59:24;1.73;;;0.80;;
9597;SDS011;4837;50.890;4.724;2023-03-14T12:02:09;2.07;;;1.20;;
9597;SDS011;4837;50.890;4.724;2023-03-14T12:07:09;1.97;;;0.70;;
9597;SDS011;4837;50.890;4.724;2023-03-14T12:09:38;1.40;;;0.87;;
9597;SDS011;4837;50.890;4.724;2023-03-14T12:12:04;2.13;;;0.90;;
9597;SDS011;4837;50.890;4.724;2023-03-14T12:14:35;2.33;;;1.00;;
9597;SDS011;4837;50.890;4.724;2023-03-14T12:17:06;1.88;;;0.75;;
9597;SDS011;4837;50.890;4.724;2023-03-14T12:19:33;4.13;;;0.98;;
9597;SDS011;4837;50.890;4.724;2023-03-14T12:22:05;1.40;;;0.80;;
9597;SDS011;4837;50.890;4.724;2023-03-14T12:24:33;3.00;;;1.30;;
9597;SDS011;4837;50.890;4.724;2023-03-14T12:27:00;4.20;;;1.10;;
9597;SDS011;4837;50.890;4.724;2023-03-14T12:29:26;2.47;;;1.10;;
9597;SDS011;4837;50.890;4.724;2023-03-14T12:34:43;1.93;;;0.97;;
9597;SDS011;4837;50.890;4.724;2023-03-14T12:45:14;4.00;;;1.47;;
9597;SDS011;4837;50.890;4.724;2023-03-14T12:47:47;3.40;;;1.10;;
9597;SDS011;4837;50.890;4.724;2023-03-14T12:50:19;2.40;;;1.23;;
9597;SDS011;4837;50.890;4.724;2023-03-14T12:53:00;3.03;;;1.30;;
9597;SDS011;4837;50.890;4.724;2023-03-14T12:55:49;6.80;;;1.50;;
9597;SDS011;4837;50.890;4.724;2023-03-14T13:01:02;6.63;;;1.57;;
9597;SDS011;4837;50.890;4.724;2023-03-14T13:03:39;9.90;;;2.00;;
9597;SDS011;4837;50.890;4.724;2023-03-14T13:06:08;7.85;;;1.85;;
9597;SDS011;4837;50.890;4.724;2023-03-14T13:08:36;5.17;;;1.73;;
9597;SDS011;4837;50.890;4.724;2023-03-14T13:11:04;12.37;;;2.10;;
9597;SDS011;4837;50.890;4.724;2023-03-14T13:13:31;6.22;;;1.63;;
9597;SDS011;4837;50.890;4.724;2023-03-14T13:16:00;7.43;;;1.60;;
9597;SDS011;4837;50.890;4.724;2023-03-14T13:18:34;3.13;;;1.50;;
9597;SDS011;4837;50.890;4.724;2023-03-14T13:23:31;4.20;;;1.33;;
9597;SDS011;4837;50.890;4.724;2023-03-14T13:25:59;3.63;;;1.40;;
9597;SDS011;4837;50.890;4.724;2023-03-14T13:28:25;3.43;;;1.40;;
9597;SDS011;4837;50.890;4.724;2023-03-14T13:30:56;3.90;;;1.30;;
9597;SDS011;4837;50.890;4.724;2023-03-14T13:33:23;2.87;;;1.40;;
9597;SDS011;4837;50.890;4.724;2023-03-14T13:35:54;2.87;;;1.47;;
9597;SDS011;4837;50.890;4.724;2023-03-14T13:38:21;3.40;;;1.87;;
9597;SDS011;4837;50.890;4.724;2023-03-14T13:40:48;5.43;;;2.10;;
9597;SDS011;4837;50.890;4.724;2023-03-14T13:45:44;10.97;;;2.30;;
9597;SDS011;4837;50.890;4.724;2023-03-14T13:48:11;8.80;;;3.60;;
9597;SDS011;4837;50.890;4.724;2023-03-14T13:50:43;11.03;;;1.87;;
9597;SDS011;4837;50.890;4.724;2023-03-14T13:53:11;7.00;;;1.87;;
9597;SDS011;4837;50.890;4.724;2023-03-14T13:55:37;9.13;;;2.60;;
9597;SDS011;4837;50.890;4.724;2023-03-14T13:58:04;8.93;;;2.20;;
9597;SDS011;4837;50.890;4.724;2023-03-14T14:00:30;8.37;;;2.00;;
9597;SDS011;4837;50.890;4.724;2023-03-14T14:02:57;13.47;;;2.43;;
9597;SDS011;4837;50.890;4.724;2023-03-14T14:05:28;8.90;;;2.33;;
9597;SDS011;4837;50.890;4.724;2023-03-14T14:07:54;7.27;;;2.13;;
9597;SDS011;4837;50.890;4.724;2023-03-14T14:10:21;8.97;;;2.20;;
9597;SDS011;4837;50.890;4.724;2023-03-14T14:15:28;14.33;;;2.73;;
9597;SDS011;4837;50.890;4.724;2023-03-14T14:18:04;9.27;;;2.23;;
9597;SDS011;4837;50.890;4.724;2023-03-14T14:20:33;14.73;;;2.60;;
9597;SDS011;4837;50.890;4.724;2023-03-14T14:23:01;7.72;;;1.67;;
9597;SDS011;4837;50.890;4.724;2023-03-14T14:25:31;7.15;;;2.28;;
9597;SDS011;4837;50.890;4.724;2023-03-14T14:27:57;9.60;;;2.20;;
9597;SDS011;4837;50.890;4.724;2023-03-14T14:30:30;12.67;;;2.90;;
9597;SDS011;4837;50.890;4.724;2023-03-14T14:33:11;8.17;;;2.43;;
9597;SDS011;4837;50.890;4.724;2023-03-14T14:35:38;11.27;;;2.25;;
9597;SDS011;4837;50.890;4.724;2023-03-14T14:38:10;9.30;;;2.50;;
9597;SDS011;4837;50.890;4.724;2023-03-14T14:40:48;8.10;;;2.60;;
9597;SDS011;4837;50.890;4.724;2023-03-14T14:43:16;9.25;;;2.58;;
9597;SDS011;4837;50.890;4.724;2023-03-14T14:45:43;12.10;;;2.67;;
9597;SDS011;4837;50.890;4.724;2023-03-14T14:48:11;10.40;;;2.22;;
9597;SDS011;4837;50.890;4.724;2023-03-14T14:50:39;14.10;;;2.92;;
9597;SDS011;4837;50.890;4.724;2023-03-14T14:53:36;12.37;;;2.93;;
9597;SDS011;4837;50.890;4.724;2023-03-14T14:56:04;10.40;;;2.47;;
9597;SDS011;4837;50.890;4.724;2023-03-14T14:58:34;9.95;;;2.58;;
9597;SDS011;4837;50.890;4.724;2023-03-14T15:01:17;9.13;;;2.80;;
9597;SDS011;4837;50.890;4.724;2023-03-14T15:03:44;8.63;;;2.50;;
9597;SDS011;4837;50.890;4.724;2023-03-14T15:06:12;6.47;;;1.70;;
9597;SDS011;4837;50.890;4.724;2023-03-14T15:08:38;5.88;;;1.35;;
9597;SDS011;4837;50.890;4.724;2023-03-14T15:11:04;5.80;;;1.38;;
9597;SDS011;4837;50.890;4.724;2023-03-14T15:13:30;4.30;;;1.27;;
9597;SDS011;4837;50.890;4.724;2023-03-14T15:15:56;7.53;;;1.63;;
9597;SDS011;4837;50.890;4.724;2023-03-14T15:18:24;6.87;;;2.07;;
9597;SDS011;4837;50.890;4.724;2023-03-14T15:20:50;6.77;;;1.70;;
9597;SDS011;4837;50.890;4.724;2023-03-14T15:23:17;4.73;;;1.03;;
9597;SDS011;4837;50.890;4.724;2023-03-14T15:25:43;4.97;;;1.47;;
9597;SDS011;4837;50.890;4.724;2023-03-14T15:28:19;5.20;;;1.33;;
9597;SDS011;4837;50.890;4.724;2023-03-14T15:30:46;3.37;;;1.00;;
9597;SDS011;4837;50.890;4.724;2023-03-14T15:33:12;4.60;;;1.10;;
9597;SDS011;4837;50.890;4.724;2023-03-14T15:35:39;6.70;;;1.35;;
9597;SDS011;4837;50.890;4.724;2023-03-14T15:38:09;3.17;;;1.30;;
9597;SDS011;4837;50.890;4.724;2023-03-14T15:40:35;4.17;;;1.20;;
9597;SDS011;4837;50.890;4.724;2023-03-14T15:43:01;5.20;;;1.20;;
9597;SDS011;4837;50.890;4.724;2023-03-14T15:45:27;3.08;;;1.13;;
9597;SDS011;4837;50.890;4.724;2023-03-14T15:47:53;7.80;;;1.67;;
9597;SDS011;4837;50.890;4.724;2023-03-14T15:50:20;2.55;;;1.20;;
9597;SDS011;4837;50.890;4.724;2023-03-14T15:52:46;4.28;;;1.30;;
9597;SDS011;4837;50.890;4.724;2023-03-14T15:55:12;3.30;;;1.48;;
9597;SDS011;4837;50.890;4.724;2023-03-14T15:57:39;4.22;;;1.60;;
9597;SDS011;4837;50.890;4.724;2023-03-14T16:00:06;4.03;;;1.30;;
9597;SDS011;4837;50.890;4.724;2023-03-14T16:02:36;4.80;;;2.15;;
9597;SDS011;4837;50.890;4.724;2023-03-14T16:05:06;6.30;;;1.30;;
9597;SDS011;4837;50.890;4.724;2023-03-14T16:07:32;5.17;;;1.93;;
9597;SDS011;4837;50.890;4.724;2023-03-14T16:09:58;3.13;;;1.27;;
9597;SDS011;4837;50.890;4.724;2023-03-14T16:12:24;4.90;;;1.37;;